sensor_id;sensor_type;location;lat;lon;timestamp;temperature;humidity
49238;DHT22;35069;47.906;1.892;2022-08-19T00:01:20;21.60;81.10
49238;DHT22;35069;47.906;1.892;2022-08-19T00:03:46;21.70;81.40
49238;DHT22;35069;47.906;1.892;2022-08-19T00:06:12;21.60;81.50
49238;DHT22;35069;47.906;1.892;2022-08-19T00:08:38;21.60;81.50
49238;DHT22;35069;47.906;1.892;2022-08-19T00:11:04;21.70;82.00
49238;DHT22;35069;47.906;1.892;2022-08-19T00:13:30;21.60;82.00
49238;DHT22;35069;47.906;1.892;2022-08-19T00:15:56;21.70;82.30
49238;DHT22;35069;47.906;1.892;2022-08-19T00:18:22;21.60;82.50
49238;DHT22;35069;47.906;1.892;2022-08-19T00:20:47;21.70;82.70
49238;DHT22;35069;47.906;1.892;2022-08-19T00:23:13;21.50;83.10
49238;DHT22;35069;47.906;1.892;2022-08-19T00:25:40;21.50;83.60
49238;DHT22;35069;47.906;1.892;2022-08-19T00:28:06;21.40;83.90
49238;DHT22;35069;47.906;1.892;2022-08-19T00:30:31;21.50;84.80
49238;DHT22;35069;47.906;1.892;2022-08-19T00:32:57;21.50;84.40
49238;DHT22;35069;47.906;1.892;2022-08-19T00:35:23;21.50;84.70
49238;DHT22;35069;47.906;1.892;2022-08-19T00:37:49;21.60;85.30
49238;DHT22;35069;47.906;1.892;2022-08-19T00:40:17;21.50;84.70
49238;DHT22;35069;47.906;1.892;2022-08-19T00:42:44;21.50;85.10
49238;DHT22;35069;47.906;1.892;2022-08-19T00:45:15;21.40;85.30
49238;DHT22;35069;47.906;1.892;2022-08-19T00:47:43;21.40;85.80
49238;DHT22;35069;47.906;1.892;2022-08-19T00:50:10;21.30;86.80
49238;DHT22;35069;47.906;1.892;2022-08-19T00:52:41;21.30;86.80
49238;DHT22;35069;47.906;1.892;2022-08-19T00:55:18;21.30;87.60
49238;DHT22;35069;47.906;1.892;2022-08-19T00:57:48;21.30;87.10
49238;DHT22;35069;47.906;1.892;2022-08-19T01:00:18;21.30;87.20
49238;DHT22;35069;47.906;1.892;2022-08-19T01:02:44;21.50;86.90
49238;DHT22;35069;47.906;1.892;2022-08-19T01:05:20;21.60;86.60
49238;DHT22;35069;47.906;1.892;2022-08-19T01:07:47;21.60;86.80
49238;DHT22;35069;47.906;1.892;2022-08-19T01:10:20;21.50;87.00
49238;DHT22;35069;47.906;1.892;2022-08-19T01:12:47;21.40;86.70
49238;DHT22;35069;47.906;1.892;2022-08-19T01:15:17;21.30;87.10
49238;DHT22;35069;47.906;1.892;2022-08-19T01:17:44;21.30;87.60
49238;DHT22;35069;47.906;1.892;2022-08-19T01:20:19;21.30;87.70
49238;DHT22;35069;47.906;1.892;2022-08-19T01:22:54;21.30;87.80
49238;DHT22;35069;47.906;1.892;2022-08-19T01:25:24;21.30;88.10
49238;DHT22;35069;47.906;1.892;2022-08-19T01:27:50;21.20;88.30
49238;DHT22;35069;47.906;1.892;2022-08-19T01:30:20;21.20;88.80
49238;DHT22;35069;47.906;1.892;2022-08-19T01:32:48;21.20;89.00
49238;DHT22;35069;47.906;1.892;2022-08-19T01:35:13;21.20;88.60
49238;DHT22;35069;47.906;1.892;2022-08-19T01:37:51;21.20;88.60
49238;DHT22;35069;47.906;1.892;2022-08-19T01:40:20;21.30;88.80
49238;DHT22;35069;47.906;1.892;2022-08-19T01:42:48;21.20;88.70
49238;DHT22;35069;47.906;1.892;2022-08-19T01:45:15;21.20;89.30
49238;DHT22;35069;47.906;1.892;2022-08-19T01:47:40;21.20;88.80
49238;DHT22;35069;47.906;1.892;2022-08-19T01:50:08;21.30;88.30
49238;DHT22;35069;47.906;1.892;2022-08-19T01:52:42;21.30;88.20
49238;DHT22;35069;47.906;1.892;2022-08-19T01:55:11;21.20;88.80
49238;DHT22;35069;47.906;1.892;2022-08-19T01:57:38;21.00;89.40
49238;DHT22;35069;47.906;1.892;2022-08-19T02:00:08;21.00;89.80
49238;DHT22;35069;47.906;1.892;2022-08-19T02:02:34;21.00;90.00
49238;DHT22;35069;47.906;1.892;2022-08-19T02:05:00;20.90;90.20
49238;DHT22;35069;47.906;1.892;2022-08-19T02:07:25;20.90;90.20
49238;DHT22;35069;47.906;1.892;2022-08-19T02:09:51;20.90;90.30
49238;DHT22;35069;47.906;1.892;2022-08-19T02:12:16;20.80;90.50
49238;DHT22;35069;47.906;1.892;2022-08-19T02:14:42;20.80;90.60
49238;DHT22;35069;47.906;1.892;2022-08-19T02:17:09;20.70;90.80
49238;DHT22;35069;47.906;1.892;2022-08-19T02:19:35;20.60;91.10
49238;DHT22;35069;47.906;1.892;2022-08-19T02:22:00;20.50;91.40
49238;DHT22;35069;47.906;1.892;2022-08-19T02:24:27;20.40;91.60
49238;DHT22;35069;47.906;1.892;2022-08-19T02:26:53;20.50;91.80
49238;DHT22;35069;47.906;1.892;2022-08-19T02:29:19;20.40;91.90
49238;DHT22;35069;47.906;1.892;2022-08-19T02:31:45;20.40;92.10
49238;DHT22;35069;47.906;1.892;2022-08-19T02:34:10;20.30;92.30
49238;DHT22;35069;47.906;1.892;2022-08-19T02:36:36;20.30;92.50
49238;DHT22;35069;47.906;1.892;2022-08-19T02:39:02;20.30;92.50
49238;DHT22;35069;47.906;1.892;2022-08-19T02:41:30;20.30;92.60
49238;DHT22;35069;47.906;1.892;2022-08-19T02:43:57;20.30;92.70
49238;DHT22;35069;47.906;1.892;2022-08-19T02:46:28;20.50;92.80
49238;DHT22;35069;47.906;1.892;2022-08-19T02:48:57;20.50;92.80
49238;DHT22;35069;47.906;1.892;2022-08-19T02:51:26;20.50;92.90
49238;DHT22;35069;47.906;1.892;2022-08-19T02:53:52;20.50;92.90
49238;DHT22;35069;47.906;1.892;2022-08-19T02:56:19;20.50;93.20
49238;DHT22;35069;47.906;1.892;2022-08-19T02:58:45;20.60;93.00
49238;DHT22;35069;47.906;1.892;2022-08-19T03:01:18;20.50;93.00
49238;DHT22;35069;47.906;1.892;2022-08-19T03:03:44;20.50;93.20
49238;DHT22;35069;47.906;1.892;2022-08-19T03:06:15;20.50;93.30
49238;DHT22;35069;47.906;1.892;2022-08-19T03:08:43;20.50;93.40
49238;DHT22;35069;47.906;1.892;2022-08-19T03:11:14;20.50;93.50
49238;DHT22;35069;47.906;1.892;2022-08-19T03:13:41;20.50;93.80
49238;DHT22;35069;47.906;1.892;2022-08-19T03:16:09;20.50;93.80
49238;DHT22;35069;47.906;1.892;2022-08-19T03:18:35;20.50;93.90
49238;DHT22;35069;47.906;1.892;2022-08-19T03:21:01;20.50;94.10
49238;DHT22;35069;47.906;1.892;2022-08-19T03:23:26;20.50;94.30
49238;DHT22;35069;47.906;1.892;2022-08-19T03:25:53;20.50;94.30
49238;DHT22;35069;47.906;1.892;2022-08-19T03:28:19;20.50;94.40
49238;DHT22;35069;47.906;1.892;2022-08-19T03:31:06;20.50;94.60
49238;DHT22;35069;47.906;1.892;2022-08-19T03:33:33;20.40;94.70
49238;DHT22;35069;47.906;1.892;2022-08-19T03:38:37;20.40;95.00
49238;DHT22;35069;47.906;1.892;2022-08-19T03:41:08;20.50;94.90
49238;DHT22;35069;47.906;1.892;2022-08-19T03:43:38;20.60;94.90
49238;DHT22;35069;47.906;1.892;2022-08-19T03:46:10;20.60;94.80
49238;DHT22;35069;47.906;1.892;2022-08-19T03:48:38;20.70;94.90
49238;DHT22;35069;47.906;1.892;2022-08-19T03:51:05;20.70;94.70
49238;DHT22;35069;47.906;1.892;2022-08-19T03:53:32;20.70;94.50
49238;DHT22;35069;47.906;1.892;2022-08-19T03:55:58;20.70;94.50
49238;DHT22;35069;47.906;1.892;2022-08-19T03:58:30;20.70;94.40
49238;DHT22;35069;47.906;1.892;2022-08-19T04:00:56;20.60;94.50
49238;DHT22;35069;47.906;1.892;2022-08-19T04:03:23;20.60;94.70
49238;DHT22;35069;47.906;1.892;2022-08-19T04:05:49;20.50;95.00
49238;DHT22;35069;47.906;1.892;2022-08-19T04:08:15;20.50;95.20
49238;DHT22;35069;47.906;1.892;2022-08-19T04:10:44;20.50;95.30
49238;DHT22;35069;47.906;1.892;2022-08-19T04:13:09;20.50;95.40
49238;DHT22;35069;47.906;1.892;2022-08-19T04:15:40;20.60;95.40
49238;DHT22;35069;47.906;1.892;2022-08-19T04:18:10;20.50;95.50
49238;DHT22;35069;47.906;1.892;2022-08-19T04:20:44;20.50;95.90
49238;DHT22;35069;47.906;1.892;2022-08-19T04:23:11;20.50;95.90
49238;DHT22;35069;47.906;1.892;2022-08-19T04:25:42;20.60;95.90
49238;DHT22;35069;47.906;1.892;2022-08-19T04:28:10;20.60;96.00
49238;DHT22;35069;47.906;1.892;2022-08-19T04:30:46;20.60;96.00
49238;DHT22;35069;47.906;1.892;2022-08-19T04:33:13;20.70;96.00
49238;DHT22;35069;47.906;1.892;2022-08-19T04:35:43;20.70;96.10
49238;DHT22;35069;47.906;1.892;2022-08-19T04:38:10;20.60;96.20
49238;DHT22;35069;47.906;1.892;2022-08-19T04:40:50;20.60;96.40
49238;DHT22;35069;47.906;1.892;2022-08-19T04:43:36;20.70;96.70
49238;DHT22;35069;47.906;1.892;2022-08-19T04:46:08;20.80;96.60
49238;DHT22;35069;47.906;1.892;2022-08-19T04:48:34;20.80;96.50
49238;DHT22;35069;47.906;1.892;2022-08-19T04:51:00;20.80;96.40
49238;DHT22;35069;47.906;1.892;2022-08-19T04:53:31;20.80;96.50
49238;DHT22;35069;47.906;1.892;2022-08-19T04:55:58;20.70;96.70
49238;DHT22;35069;47.906;1.892;2022-08-19T04:58:26;20.70;96.90
49238;DHT22;35069;47.906;1.892;2022-08-19T05:00:53;20.60;97.10
49238;DHT22;35069;47.906;1.892;2022-08-19T05:03:19;20.70;97.40
49238;DHT22;35069;47.906;1.892;2022-08-19T05:05:46;20.70;97.40
49238;DHT22;35069;47.906;1.892;2022-08-19T05:08:15;20.80;97.10
49238;DHT22;35069;47.906;1.892;2022-08-19T05:10:49;20.90;96.90
49238;DHT22;35069;47.906;1.892;2022-08-19T05:13:17;21.10;96.90
49238;DHT22;35069;47.906;1.892;2022-08-19T05:15:43;21.10;96.40
49238;DHT22;35069;47.906;1.892;2022-08-19T05:18:09;21.20;96.10
49238;DHT22;35069;47.906;1.892;2022-08-19T05:20:54;21.30;95.80
49238;DHT22;35069;47.906;1.892;2022-08-19T05:23:38;21.30;95.70
49238;DHT22;35069;47.906;1.892;2022-08-19T05:26:04;21.30;95.80
49238;DHT22;35069;47.906;1.892;2022-08-19T05:28:30;21.50;95.70
49238;DHT22;35069;47.906;1.892;2022-08-19T05:30:56;21.50;95.30
49238;DHT22;35069;47.906;1.892;2022-08-19T05:33:23;21.50;95.00
49238;DHT22;35069;47.906;1.892;2022-08-19T05:35:49;21.50;94.90
49238;DHT22;35069;47.906;1.892;2022-08-19T05:38:18;21.60;94.80
49238;DHT22;35069;47.906;1.892;2022-08-19T05:40:44;21.50;94.90
49238;DHT22;35069;47.906;1.892;2022-08-19T05:43:12;21.60;94.80
49238;DHT22;35069;47.906;1.892;2022-08-19T05:45:41;21.60;94.70
49238;DHT22;35069;47.906;1.892;2022-08-19T05:48:08;21.50;94.80
49238;DHT22;35069;47.906;1.892;2022-08-19T05:50:37;21.50;94.80
49238;DHT22;35069;47.906;1.892;2022-08-19T05:53:04;21.50;94.90
49238;DHT22;35069;47.906;1.892;2022-08-19T05:55:30;21.50;94.90
49238;DHT22;35069;47.906;1.892;2022-08-19T05:57:56;21.50;95.00
49238;DHT22;35069;47.906;1.892;2022-08-19T06:00:21;21.50;94.90
49238;DHT22;35069;47.906;1.892;2022-08-19T06:02:48;21.60;94.80
49238;DHT22;35069;47.906;1.892;2022-08-19T06:05:14;21.70;94.60
49238;DHT22;35069;47.906;1.892;2022-08-19T06:07:40;21.70;94.50
49238;DHT22;35069;47.906;1.892;2022-08-19T06:10:09;21.80;94.40
49238;DHT22;35069;47.906;1.892;2022-08-19T06:12:35;21.80;94.20
49238;DHT22;35069;47.906;1.892;2022-08-19T06:15:09;21.80;94.10
49238;DHT22;35069;47.906;1.892;2022-08-19T06:17:35;22.20;94.30
49238;DHT22;35069;47.906;1.892;2022-08-19T06:20:04;22.60;93.80
49238;DHT22;35069;47.906;1.892;2022-08-19T06:22:30;22.90;93.10
49238;DHT22;35069;47.906;1.892;2022-08-19T06:24:55;23.20;92.40
49238;DHT22;35069;47.906;1.892;2022-08-19T06:27:22;23.30;91.30
49238;DHT22;35069;47.906;1.892;2022-08-19T06:29:48;23.30;90.80
49238;DHT22;35069;47.906;1.892;2022-08-19T06:32:16;23.30;90.60
49238;DHT22;35069;47.906;1.892;2022-08-19T06:34:42;23.50;90.20
49238;DHT22;35069;47.906;1.892;2022-08-19T06:37:08;23.80;90.00
49238;DHT22;35069;47.906;1.892;2022-08-19T06:39:38;24.30;89.30
49238;DHT22;35069;47.906;1.892;2022-08-19T06:42:05;24.80;86.70
49238;DHT22;35069;47.906;1.892;2022-08-19T06:44:34;25.30;84.60
49238;DHT22;35069;47.906;1.892;2022-08-19T06:47:05;25.50;82.60
49238;DHT22;35069;47.906;1.892;2022-08-19T06:49:33;25.50;80.00
49238;DHT22;35069;47.906;1.892;2022-08-19T06:52:00;25.20;78.50
49238;DHT22;35069;47.906;1.892;2022-08-19T06:54:26;24.90;78.10
49238;DHT22;35069;47.906;1.892;2022-08-19T06:56:52;24.80;78.40
49238;DHT22;35069;47.906;1.892;2022-08-19T06:59:21;25.10;78.60
49238;DHT22;35069;47.906;1.892;2022-08-19T07:01:51;25.50;78.10
49238;DHT22;35069;47.906;1.892;2022-08-19T07:04:23;25.90;76.90
49238;DHT22;35069;47.906;1.892;2022-08-19T07:06:50;26.10;74.90
49238;DHT22;35069;47.906;1.892;2022-08-19T07:09:21;25.70;73.40
49238;DHT22;35069;47.906;1.892;2022-08-19T07:11:50;25.50;73.50
49238;DHT22;35069;47.906;1.892;2022-08-19T07:14:21;25.30;73.80
49238;DHT22;35069;47.906;1.892;2022-08-19T07:16:49;25.10;73.90
49238;DHT22;35069;47.906;1.892;2022-08-19T07:19:16;24.70;74.40
49238;DHT22;35069;47.906;1.892;2022-08-19T07:21:42;24.30;75.20
49238;DHT22;35069;47.906;1.892;2022-08-19T07:24:08;24.20;76.40
49238;DHT22;35069;47.906;1.892;2022-08-19T07:26:39;24.10;77.20
49238;DHT22;35069;47.906;1.892;2022-08-19T07:29:05;24.40;77.30
49238;DHT22;35069;47.906;1.892;2022-08-19T07:31:31;24.60;76.90
49238;DHT22;35069;47.906;1.892;2022-08-19T07:34:06;24.80;76.40
49238;DHT22;35069;47.906;1.892;2022-08-19T07:36:33;24.90;75.80
49238;DHT22;35069;47.906;1.892;2022-08-19T07:39:02;25.00;75.50
49238;DHT22;35069;47.906;1.892;2022-08-19T07:41:29;25.10;74.90
49238;DHT22;35069;47.906;1.892;2022-08-19T07:44:01;25.00;74.60
49238;DHT22;35069;47.906;1.892;2022-08-19T07:46:34;24.80;74.50
49238;DHT22;35069;47.906;1.892;2022-08-19T07:49:01;24.60;74.50
49238;DHT22;35069;47.906;1.892;2022-08-19T07:51:28;24.50;74.80
49238;DHT22;35069;47.906;1.892;2022-08-19T07:53:54;24.60;75.10
49238;DHT22;35069;47.906;1.892;2022-08-19T07:56:20;24.80;75.20
49238;DHT22;35069;47.906;1.892;2022-08-19T07:58:47;24.90;74.90
49238;DHT22;35069;47.906;1.892;2022-08-19T08:01:20;25.20;74.40
49238;DHT22;35069;47.906;1.892;2022-08-19T08:03:46;25.50;73.20
49238;DHT22;35069;47.906;1.892;2022-08-19T08:06:34;27.40;75.50
49238;DHT22;35069;47.906;1.892;2022-08-19T08:09:25;30.20;71.70
49238;DHT22;35069;47.906;1.892;2022-08-19T08:11:58;32.40;64.80
49238;DHT22;35069;47.906;1.892;2022-08-19T08:14:27;33.70;56.50
49238;DHT22;35069;47.906;1.892;2022-08-19T08:16:53;34.50;56.60
49238;DHT22;35069;47.906;1.892;2022-08-19T08:19:22;35.30;54.30
49238;DHT22;35069;47.906;1.892;2022-08-19T08:21:49;35.80;51.80
49238;DHT22;35069;47.906;1.892;2022-08-19T08:24:15;36.50;50.60
49238;DHT22;35069;47.906;1.892;2022-08-19T08:26:42;37.50;48.90
49238;DHT22;35069;47.906;1.892;2022-08-19T08:29:10;38.10;47.70
49238;DHT22;35069;47.906;1.892;2022-08-19T08:31:36;38.70;46.30
49238;DHT22;35069;47.906;1.892;2022-08-19T08:34:03;39.30;44.80
49238;DHT22;35069;47.906;1.892;2022-08-19T08:36:28;39.10;44.40
49238;DHT22;35069;47.906;1.892;2022-08-19T08:38:54;38.00;44.20
49238;DHT22;35069;47.906;1.892;2022-08-19T08:41:31;36.70;45.30
49238;DHT22;35069;47.906;1.892;2022-08-19T08:44:01;35.50;47.10
49238;DHT22;35069;47.906;1.892;2022-08-19T08:46:43;34.50;48.90
49238;DHT22;35069;47.906;1.892;2022-08-19T08:49:25;33.60;50.60
49238;DHT22;35069;47.906;1.892;2022-08-19T08:52:08;33.00;51.50
49238;DHT22;35069;47.906;1.892;2022-08-19T08:54:44;32.60;52.90
49238;DHT22;35069;47.906;1.892;2022-08-19T08:57:29;32.60;53.20
49238;DHT22;35069;47.906;1.892;2022-08-19T09:00:00;32.40;51.60
49238;DHT22;35069;47.906;1.892;2022-08-19T09:02:29;32.10;51.80
49238;DHT22;35069;47.906;1.892;2022-08-19T09:04:55;31.90;52.90
49238;DHT22;35069;47.906;1.892;2022-08-19T09:10:52;31.40;51.10
49238;DHT22;35069;47.906;1.892;2022-08-19T09:13:22;31.20;51.60
49238;DHT22;35069;47.906;1.892;2022-08-19T09:16:00;30.70;51.20
49238;DHT22;35069;47.906;1.892;2022-08-19T09:18:43;30.20;51.30
49238;DHT22;35069;47.906;1.892;2022-08-19T09:21:11;30.30;53.10
49238;DHT22;35069;47.906;1.892;2022-08-19T09:23:37;30.00;52.00
49238;DHT22;35069;47.906;1.892;2022-08-19T09:26:08;29.30;53.10
49238;DHT22;35069;47.906;1.892;2022-08-19T09:28:34;28.50;55.50
49238;DHT22;35069;47.906;1.892;2022-08-19T09:30:59;28.30;56.80
49238;DHT22;35069;47.906;1.892;2022-08-19T09:33:25;28.20;57.70
49238;DHT22;35069;47.906;1.892;2022-08-19T09:36:02;28.20;58.30
49238;DHT22;35069;47.906;1.892;2022-08-19T09:38:28;28.20;59.40
49238;DHT22;35069;47.906;1.892;2022-08-19T09:40:54;28.20;58.90
49238;DHT22;35069;47.906;1.892;2022-08-19T09:43:20;27.90;59.10
49238;DHT22;35069;47.906;1.892;2022-08-19T09:45:45;27.50;60.40
49238;DHT22;35069;47.906;1.892;2022-08-19T09:48:11;27.40;61.90
49238;DHT22;35069;47.906;1.892;2022-08-19T09:50:36;27.50;62.50
49238;DHT22;35069;47.906;1.892;2022-08-19T09:53:03;28.00;63.90
49238;DHT22;35069;47.906;1.892;2022-08-19T09:55:30;29.40;63.40
49238;DHT22;35069;47.906;1.892;2022-08-19T09:57:56;29.50;60.90
49238;DHT22;35069;47.906;1.892;2022-08-19T10:00:21;29.70;61.20
49238;DHT22;35069;47.906;1.892;2022-08-19T10:02:47;29.90;60.40
49238;DHT22;35069;47.906;1.892;2022-08-19T10:05:13;29.40;59.40
49238;DHT22;35069;47.906;1.892;2022-08-19T10:07:57;29.10;59.70
49238;DHT22;35069;47.906;1.892;2022-08-19T10:10:22;28.60;60.20
49238;DHT22;35069;47.906;1.892;2022-08-19T10:12:49;28.50;61.60
49238;DHT22;35069;47.906;1.892;2022-08-19T10:15:14;28.30;61.60
49238;DHT22;35069;47.906;1.892;2022-08-19T10:17:40;27.80;61.80
49238;DHT22;35069;47.906;1.892;2022-08-19T10:20:06;27.30;63.60
49238;DHT22;35069;47.906;1.892;2022-08-19T10:22:32;26.90;65.10
49238;DHT22;35069;47.906;1.892;2022-08-19T10:25:00;26.60;66.90
49238;DHT22;35069;47.906;1.892;2022-08-19T10:27:26;26.50;68.00
49238;DHT22;35069;47.906;1.892;2022-08-19T10:29:52;26.40;68.80
49238;DHT22;35069;47.906;1.892;2022-08-19T10:32:18;26.40;70.00
49238;DHT22;35069;47.906;1.892;2022-08-19T10:34:43;26.60;70.40
49238;DHT22;35069;47.906;1.892;2022-08-19T10:37:09;26.70;70.30
49238;DHT22;35069;47.906;1.892;2022-08-19T10:39:36;27.10;71.00
49238;DHT22;35069;47.906;1.892;2022-08-19T10:42:08;28.90;71.40
49238;DHT22;35069;47.906;1.892;2022-08-19T10:44:36;29.70;66.70
49238;DHT22;35069;47.906;1.892;2022-08-19T10:47:02;29.30;65.20
49238;DHT22;35069;47.906;1.892;2022-08-19T10:49:29;29.50;65.70
49238;DHT22;35069;47.906;1.892;2022-08-19T10:51:56;30.40;65.10
49238;DHT22;35069;47.906;1.892;2022-08-19T10:54:40;31.10;63.00
49238;DHT22;35069;47.906;1.892;2022-08-19T10:57:24;31.20;61.70
49238;DHT22;35069;47.906;1.892;2022-08-19T10:59:55;30.90;61.40
49238;DHT22;35069;47.906;1.892;2022-08-19T11:02:21;30.40;60.80
49238;DHT22;35069;47.906;1.892;2022-08-19T11:04:46;29.90;61.60
49238;DHT22;35069;47.906;1.892;2022-08-19T11:07:15;29.50;62.10
49238;DHT22;35069;47.906;1.892;2022-08-19T11:09:42;28.90;62.50
49238;DHT22;35069;47.906;1.892;2022-08-19T11:12:08;28.60;63.30
49238;DHT22;35069;47.906;1.892;2022-08-19T11:14:35;28.40;64.40
49238;DHT22;35069;47.906;1.892;2022-08-19T11:17:02;28.30;64.10
49238;DHT22;35069;47.906;1.892;2022-08-19T11:19:28;28.40;64.50
49238;DHT22;35069;47.906;1.892;2022-08-19T11:21:54;28.60;64.50
49238;DHT22;35069;47.906;1.892;2022-08-19T11:24:22;28.90;64.30
49238;DHT22;35069;47.906;1.892;2022-08-19T11:26:51;28.90;63.70
49238;DHT22;35069;47.906;1.892;2022-08-19T11:29:19;28.70;64.30
49238;DHT22;35069;47.906;1.892;2022-08-19T11:31:47;29.30;64.50
49238;DHT22;35069;47.906;1.892;2022-08-19T11:34:18;29.90;62.80
49238;DHT22;35069;47.906;1.892;2022-08-19T11:36:46;29.70;61.90
49238;DHT22;35069;47.906;1.892;2022-08-19T11:39:14;29.50;62.30
49238;DHT22;35069;47.906;1.892;2022-08-19T11:41:41;29.40;62.50
49238;DHT22;35069;47.906;1.892;2022-08-19T11:44:06;29.20;63.00
49238;DHT22;35069;47.906;1.892;2022-08-19T11:46:34;29.10;63.10
49238;DHT22;35069;47.906;1.892;2022-08-19T11:49:01;29.10;63.30
49238;DHT22;35069;47.906;1.892;2022-08-19T11:51:29;29.10;63.30
49238;DHT22;35069;47.906;1.892;2022-08-19T11:53:56;28.60;63.10
49238;DHT22;35069;47.906;1.892;2022-08-19T11:56:24;28.10;63.80
49238;DHT22;35069;47.906;1.892;2022-08-19T11:58:50;27.90;64.70
49238;DHT22;35069;47.906;1.892;2022-08-19T12:01:17;27.70;65.20
49238;DHT22;35069;47.906;1.892;2022-08-19T12:03:45;27.50;66.40
49238;DHT22;35069;47.906;1.892;2022-08-19T12:06:14;27.30;66.10
49238;DHT22;35069;47.906;1.892;2022-08-19T12:08:41;27.00;66.20
49238;DHT22;35069;47.906;1.892;2022-08-19T12:11:08;26.70;67.20
49238;DHT22;35069;47.906;1.892;2022-08-19T12:13:35;26.50;68.70
49238;DHT22;35069;47.906;1.892;2022-08-19T12:16:11;26.40;69.70
49238;DHT22;35069;47.906;1.892;2022-08-19T12:18:38;26.30;71.30
49238;DHT22;35069;47.906;1.892;2022-08-19T12:21:04;26.40;71.10
49238;DHT22;35069;47.906;1.892;2022-08-19T12:23:30;26.40;71.70
49238;DHT22;35069;47.906;1.892;2022-08-19T12:25:55;26.20;71.30
49238;DHT22;35069;47.906;1.892;2022-08-19T12:28:24;26.10;71.60
49238;DHT22;35069;47.906;1.892;2022-08-19T12:30:50;26.30;71.70
49238;DHT22;35069;47.906;1.892;2022-08-19T12:33:17;26.80;71.60
49238;DHT22;35069;47.906;1.892;2022-08-19T12:35:43;27.50;71.10
49238;DHT22;35069;47.906;1.892;2022-08-19T12:38:11;27.90;69.70
49238;DHT22;35069;47.906;1.892;2022-08-19T12:40:37;27.90;68.80
49238;DHT22;35069;47.906;1.892;2022-08-19T12:43:04;27.80;67.80
49238;DHT22;35069;47.906;1.892;2022-08-19T12:45:29;27.60;67.60
49238;DHT22;35069;47.906;1.892;2022-08-19T12:47:55;27.30;67.80
49238;DHT22;35069;47.906;1.892;2022-08-19T12:50:21;27.00;68.10
49238;DHT22;35069;47.906;1.892;2022-08-19T12:52:47;26.80;69.00
49238;DHT22;35069;47.906;1.892;2022-08-19T12:55:13;26.60;70.70
49238;DHT22;35069;47.906;1.892;2022-08-19T12:57:40;26.50;72.60
49238;DHT22;35069;47.906;1.892;2022-08-19T13:00:10;26.70;73.80
49238;DHT22;35069;47.906;1.892;2022-08-19T13:02:38;27.00;74.00
49238;DHT22;35069;47.906;1.892;2022-08-19T13:05:06;27.30;73.70
49238;DHT22;35069;47.906;1.892;2022-08-19T13:07:34;27.60;73.50
49238;DHT22;35069;47.906;1.892;2022-08-19T13:10:00;27.70;73.20
49238;DHT22;35069;47.906;1.892;2022-08-19T13:12:26;27.70;72.60
49238;DHT22;35069;47.906;1.892;2022-08-19T13:14:52;27.70;71.80
49238;DHT22;35069;47.906;1.892;2022-08-19T13:17:19;27.50;71.00
49238;DHT22;35069;47.906;1.892;2022-08-19T13:19:44;27.20;71.50
49238;DHT22;35069;47.906;1.892;2022-08-19T13:22:10;27.00;71.90
49238;DHT22;35069;47.906;1.892;2022-08-19T13:24:37;27.00;72.90
49238;DHT22;35069;47.906;1.892;2022-08-19T13:27:04;27.00;72.30
49238;DHT22;35069;47.906;1.892;2022-08-19T13:29:29;27.00;72.10
49238;DHT22;35069;47.906;1.892;2022-08-19T13:32:14;27.10;72.20
49238;DHT22;35069;47.906;1.892;2022-08-19T13:34:58;27.20;71.80
49238;DHT22;35069;47.906;1.892;2022-08-19T13:37:23;27.10;71.60
49238;DHT22;35069;47.906;1.892;2022-08-19T13:40:08;27.10;71.20
49238;DHT22;35069;47.906;1.892;2022-08-19T13:42:36;27.00;71.30
49238;DHT22;35069;47.906;1.892;2022-08-19T13:45:02;27.10;71.60
49238;DHT22;35069;47.906;1.892;2022-08-19T13:47:28;27.30;71.40
49238;DHT22;35069;47.906;1.892;2022-08-19T13:49:53;27.40;70.90
49238;DHT22;35069;47.906;1.892;2022-08-19T13:52:19;27.40;70.60
49238;DHT22;35069;47.906;1.892;2022-08-19T13:54:44;27.40;70.30
49238;DHT22;35069;47.906;1.892;2022-08-19T13:57:10;27.40;70.20
49238;DHT22;35069;47.906;1.892;2022-08-19T13:59:36;27.30;70.20
49238;DHT22;35069;47.906;1.892;2022-08-19T14:02:01;27.00;70.60
49238;DHT22;35069;47.906;1.892;2022-08-19T14:04:27;26.80;70.90
49238;DHT22;35069;47.906;1.892;2022-08-19T14:06:53;26.50;71.80
49238;DHT22;35069;47.906;1.892;2022-08-19T14:09:18;26.40;73.00
49238;DHT22;35069;47.906;1.892;2022-08-19T14:11:44;26.50;74.70
49238;DHT22;35069;47.906;1.892;2022-08-19T14:14:11;26.70;75.40
49238;DHT22;35069;47.906;1.892;2022-08-19T14:16:37;26.90;76.60
49238;DHT22;35069;47.906;1.892;2022-08-19T14:19:03;27.00;76.20
49238;DHT22;35069;47.906;1.892;2022-08-19T14:21:29;26.90;76.10
49238;DHT22;35069;47.906;1.892;2022-08-19T14:23:54;26.90;76.20
49238;DHT22;35069;47.906;1.892;2022-08-19T14:26:21;26.90;76.80
49238;DHT22;35069;47.906;1.892;2022-08-19T14:28:47;26.80;76.40
49238;DHT22;35069;47.906;1.892;2022-08-19T14:31:15;26.90;76.60
49238;DHT22;35069;47.906;1.892;2022-08-19T14:33:49;27.00;76.50
49238;DHT22;35069;47.906;1.892;2022-08-19T14:36:16;26.90;76.00
49238;DHT22;35069;47.906;1.892;2022-08-19T14:38:42;26.90;76.40
49238;DHT22;35069;47.906;1.892;2022-08-19T14:41:11;26.70;76.30
49238;DHT22;35069;47.906;1.892;2022-08-19T14:43:37;26.60;76.60
49238;DHT22;35069;47.906;1.892;2022-08-19T14:46:03;26.60;77.00
49238;DHT22;35069;47.906;1.892;2022-08-19T14:48:29;26.60;77.00
49238;DHT22;35069;47.906;1.892;2022-08-19T14:50:55;26.60;77.00
49238;DHT22;35069;47.906;1.892;2022-08-19T14:53:20;26.50;76.60
49238;DHT22;35069;47.906;1.892;2022-08-19T14:55:46;26.30;76.90
49238;DHT22;35069;47.906;1.892;2022-08-19T14:58:13;26.40;77.20
49238;DHT22;35069;47.906;1.892;2022-08-19T15:00:38;26.40;77.20
49238;DHT22;35069;47.906;1.892;2022-08-19T15:03:04;26.50;77.30
49238;DHT22;35069;47.906;1.892;2022-08-19T15:05:30;26.60;77.10
49238;DHT22;35069;47.906;1.892;2022-08-19T15:07:56;26.70;77.00
49238;DHT22;35069;47.906;1.892;2022-08-19T15:10:22;26.70;76.30
49238;DHT22;35069;47.906;1.892;2022-08-19T15:12:50;26.70;76.00
49238;DHT22;35069;47.906;1.892;2022-08-19T15:15:16;26.60;76.10
49238;DHT22;35069;47.906;1.892;2022-08-19T15:17:44;26.50;75.90
49238;DHT22;35069;47.906;1.892;2022-08-19T15:20:12;26.40;75.80
49238;DHT22;35069;47.906;1.892;2022-08-19T15:22:39;26.40;76.10
49238;DHT22;35069;47.906;1.892;2022-08-19T15:25:07;26.30;76.20
49238;DHT22;35069;47.906;1.892;2022-08-19T15:27:33;26.40;76.20
49238;DHT22;35069;47.906;1.892;2022-08-19T15:29:59;26.50;75.80
49238;DHT22;35069;47.906;1.892;2022-08-19T15:32:25;26.50;75.60
49238;DHT22;35069;47.906;1.892;2022-08-19T15:34:52;26.50;75.70
49238;DHT22;35069;47.906;1.892;2022-08-19T15:37:17;26.40;76.00
49238;DHT22;35069;47.906;1.892;2022-08-19T15:39:47;26.40;76.10
49238;DHT22;35069;47.906;1.892;2022-08-19T15:42:12;26.40;76.10